Last 7 Days

Abernathy 3

Hourly Data | America/Los_Angeles
as of 8/12/22 5:26 AM PDT
Date & Time Temp (°F) RH (%) Dew Pt (°F) Wind Spd (mph) Wind Dir (°) Wind Gust (mph) Wind Gst Dir (°) Latest Rain (In) Daily Rain (In) Daily Min Temp (°F) Daily Max Temp (°F)
8/12/22 - 0500 60.4 86 56.2 6.8 WSW | 239 12.1 WSW | 238 0.00 0.00 60.1 62.4
8/12/22 - 0400 60.7 85 56.1 6.1 SW | 235 10.5 WSW | 252 0.00 0.00 60.5 62.4
8/12/22 - 0300 61.3 84 56.3 6.5 WSW | 243 11.8 WSW | 243 0.00 0.00 61.0 62.4
8/12/22 - 0200 61.8 79 55.4 4.5 SW | 224 11.1 SSW | 204 0.00 0.00 61.2 62.4
8/12/22 - 0100 62.8 75 54.7 5.6 WSW | 239 10.8 SW | 224 0.00 0.00 60.7 85.9
8/12/22 - 0000 63.4 70 53.3 8.6 SW | 235 18.5 WSW | 245 0.00 0.00 60.7 85.9
8/11/22 - 2300 63.4 71 54.0 7.9 SW | 222 14.8 SW | 232 0.00 0.00 60.7 85.9
8/11/22 - 2200 65.7 63 52.9 9.0 SW | 224 15.5 SSW | 211 0.00 0.00 60.7 85.9
8/11/22 - 2100 67.9 58 52.7 7.1 SW | 229 11.8 WSW | 244 0.00 0.00 60.7 85.9
8/11/22 - 2000 72.2 50 52.5 8.4 SW | 235 14.5 SW | 230 0.00 0.00 60.7 85.9
8/11/22 - 1900 77.6 41 52.2 10.0 WSW | 249 17.2 WSW | 249 0.00 0.00 60.7 85.9
8/11/22 - 1800 82.0 36 52.1 8.8 SW | 234 16.8 SW | 233 0.00 0.00 60.7 85.9
8/11/22 - 1700 83.0 39 55.9 12.3 WSW | 242 19.5 WSW | 255 0.00 0.00 60.7 85.9
8/11/22 - 1600 85.2 39 57.2 10.9 WSW | 239 18.5 WSW | 244 0.00 0.00 60.7 85.9
8/11/22 - 1500 85.3 39 57.5 9.6 SW | 222 16.5 SSW | 213 0.00 0.00 60.7 85.8
8/11/22 - 1400 84.6 39 57.0 8.8 SW | 220 16.2 SSW | 213 0.00 0.00 60.7 85.5
8/11/22 - 1300 82.0 42 56.6 8.4 SW | 218 13.2 SW | 234 0.00 0.00 60.7 83.9
8/11/22 - 1200 78.4 48 57.0 8.5 SW | 224 15.5 WSW | 240 0.00 0.00 60.7 80.7
8/11/22 - 1100 74.2 56 57.5 8.6 SW | 220 13.5 SW | 229 0.00 0.00 60.7 76.4
8/11/22 - 1000 70.9 62 57.3 6.7 SW | 216 11.1 S | 188 0.00 0.00 60.7 73.2
8/11/22 - 0900 66.3 73 57.3 6.0 SW | 222 10.5 SW | 221 0.00 0.00 60.7 68.9
8/11/22 - 0800 62.9 81 56.9 5.7 SW | 235 9.5 WSW | 242 0.00 0.00 60.7 64.5
8/11/22 - 0700 61.1 87 57.1 4.5 WSW | 243 9.1 WSW | 247 0.00 0.00 60.7 63.3
8/11/22 - 0600 61.8 86 57.7 5.7 WSW | 246 10.1 WSW | 237 0.00 0.00 61.6 63.3
8/11/22 - 0500 62.4 84 57.8 7.6 WSW | 248 14.2 SW | 234 0.00 0.00 62.2 63.3
8/11/22 - 0400 63.0 83 57.8 6.7 SW | 231 15.8 SW | 224 0.00 0.00 62.6 63.3
8/11/22 - 0300 63.0 83 57.8 6.2 SW | 232 11.1 SW | 220 0.00 0.00 62.7 63.2
8/11/22 - 0200 62.9 83 57.5 6.7 SW | 230 12.8 W | 271 0.00 0.00 62.7 63.2
8/11/22 - 0100 63.1 82 57.4 5.3 SW | 226 12.5 SW | 230 0.00 0.00 57.3 84.6
8/11/22 - 0000 63.8 78 57.0 4.9 SW | 216 11.8 WSW | 242 0.00 0.00 57.3 84.6
8/10/22 - 2300 65.2 73 56.2 4.3 SSW | 206 11.1 SW | 216 0.00 0.00 57.3 84.6
8/10/22 - 2200 67.5 64 55.0 5.1 SW | 222 9.8 SW | 220 0.00 0.00 57.3 84.6
8/10/22 - 2100 70.3 58 54.7 3.9 SW | 228 6.8 SW | 217 0.00 0.00 57.3 84.6
8/10/22 - 2000 75.6 47 53.7 6.8 WSW | 256 12.5 SW | 235 0.00 0.00 57.3 84.6
8/10/22 - 1900 79.2 42 54.0 8.2 WSW | 240 14.2 WSW | 253 0.00 0.00 57.3 84.6
8/10/22 - 1800 80.8 41 55.2 10.1 WSW | 238 19.5 SW | 226 0.00 0.00 57.3 84.6
8/10/22 - 1700 83.2 40 56.2 10.5 WSW | 242 18.2 W | 265 0.00 0.00 57.3 84.6
8/10/22 - 1600 84.1 39 56.1 10.2 SW | 236 16.5 WSW | 245 0.00 0.00 57.3 84.6
8/10/22 - 1500 83.8 39 56.1 9.5 SW | 234 16.2 SW | 220 0.00 0.00 57.3 84.6
8/10/22 - 1400 82.1 42 56.4 9.2 SW | 229 17.5 SW | 223 0.00 0.00 57.3 83.2
8/10/22 - 1300 79.6 46 57.2 8.8 SW | 219 14.5 SSW | 211 0.00 0.00 57.3 81.1
8/10/22 - 1200 78.0 47 56.4 8.2 SW | 231 15.5 S | 185 0.00 0.00 57.3 79.0
8/10/22 - 1100 74.1 53 55.8 7.0 SW | 226 12.1 SSW | 207 0.00 0.00 57.3 76.5
8/10/22 - 1000 69.2 63 56.0 7.0 SW | 216 11.8 WSW | 244 0.00 0.00 57.3 72.2
8/10/22 - 0900 65.8 70 55.6 6.8 WSW | 238 11.8 WSW | 248 0.00 0.00 57.3 67.0
8/10/22 - 0800 60.8 82 55.3 4.7 SW | 224 9.5 WSW | 243 0.00 0.00 57.3 63.2
8/10/22 - 0700 57.9 88 54.4 2.5 WSW | 258 9.5 SSW | 199 0.00 0.00 57.3 61.3
8/10/22 - 0600 58.3 88 54.9 6.8 SW | 220 11.5 SW | 216 0.00 0.00 58.0 61.3
8/10/22 - 0500 58.5 86 54.5 4.8 SW | 215 8.8 SW | 222 0.00 0.00 58.1 61.3
8/10/22 - 0400 59.2 87 55.3 4.7 SW | 219 7.4 SW | 236 0.00 0.00 58.8 61.3
8/10/22 - 0300 59.9 86 55.6 5.5 SW | 223 10.1 WSW | 239 0.00 0.00 59.6 61.3
8/10/22 - 0200 60.7 84 55.9 5.9 SW | 234 9.1 SSW | 210 0.00 0.00 60.1 61.3
8/10/22 - 0100 61.5 82 56.1 7.8 WSW | 246 14.2 WSW | 257 0.00 0.00 58.4 82.6
8/10/22 - 0000 62.4 79 55.9 8.1 WSW | 244 14.2 SW | 235 0.00 0.00 58.4 82.6
8/9/22 - 2300 63.3 76 55.7 7.9 SW | 233 13.8 WSW | 241 0.00 0.00 58.4 82.6
8/9/22 - 2200 64.8 71 55.2 8.8 SW | 228 16.5 SW | 224 0.00 0.00 58.4 82.6
8/9/22 - 2100 67.5 62 54.2 8.2 SW | 227 15.2 SW | 231 0.00 0.00 58.4 82.6
8/9/22 - 2000 71.8 52 53.4 4.7 SW | 236 14.8 SW | 235 0.00 0.00 58.4 82.6
8/9/22 - 1900 75.6 46 53.2 6.2 WSW | 240 11.8 SW | 214 0.00 0.00 58.4 82.6
8/9/22 - 1800 78.0 40 52.0 10.8 WSW | 240 18.8 SW | 225 0.00 0.00 58.4 82.6
8/9/22 - 1700 81.0 36 51.4 12.0 WSW | 243 21.2 WSW | 246 0.00 0.00 58.4 82.6
8/9/22 - 1600 82.1 38 53.8 10.3 SW | 233 20.9 W | 264 0.00 0.00 58.4 82.6
8/9/22 - 1500 81.7 39 54.2 10.4 SW | 226 17.2 WSW | 241 0.00 0.00 58.4 82.5
8/9/22 - 1400 80.2 43 55.4 10.5 SW | 235 17.8 SW | 224 0.00 0.00 58.4 81.1
8/9/22 - 1300 79.2 44 55.4 10.2 SW | 229 16.8 WSW | 249 0.00 0.00 58.4 79.6
8/9/22 - 1200 77.2 44 53.8 9.9 SW | 228 17.5 SW | 228 0.00 0.00 58.4 78.8
8/9/22 - 1100 73.1 53 54.7 9.6 SW | 226 16.8 SW | 219 0.00 0.00 58.4 75.7
8/9/22 - 1000 68.4 64 55.7 9.3 SW | 225 16.2 WSW | 245 0.00 0.00 58.4 70.2
8/9/22 - 0900 64.5 72 55.5 7.2 SW | 219 13.2 SW | 230 0.00 0.00 58.4 66.6
8/9/22 - 0800 60.8 81 54.9 6.0 SSW | 213 11.1 WSW | 238 0.00 0.00 58.4 62.9
8/9/22 - 0700 59.0 84 54.3 3.8 SW | 221 9.1 SSW | 203 0.00 0.00 58.4 62.4
8/9/22 - 0600 60.0 82 54.4 3.6 SSW | 199 8.8 SW | 232 0.00 0.00 59.6 62.4
8/9/22 - 0500 61.4 78 54.5 5.4 SW | 223 13.5 WSW | 248 0.00 0.00 60.4 62.4
8/9/22 - 0400 61.5 78 54.8 8.0 WSW | 249 17.8 WSW | 254 0.00 0.00 60.9 62.4
8/9/22 - 0300 61.8 78 54.8 7.5 WSW | 250 15.5 W | 272 0.00 0.00 61.4 62.2
8/9/22 - 0200 62.0 78 55.0 6.4 SW | 230 11.8 WSW | 240 0.00 0.00 61.7 62.2
8/9/22 - 0100 62.8 75 54.8 5.3 SW | 225 10.5 SSW | 207 0.00 0.00 59.4 84.7
8/9/22 - 0000 63.3 73 54.6 7.5 SW | 231 13.2 SW | 234 0.00 0.00 59.4 84.7
8/8/22 - 2300 64.5 68 53.9 7.2 SW | 236 11.8 SW | 228 0.00 0.00 59.4 84.7
8/8/22 - 2200 65.4 67 54.2 5.6 SW | 223 10.5 WSW | 248 0.00 0.00 59.4 84.7
8/8/22 - 2100 68.1 60 53.6 7.0 WSW | 238 15.5 SW | 232 0.00 0.00 59.4 84.7
8/8/22 - 2000 72.6 50 52.7 9.6 WSW | 240 16.8 WSW | 249 0.00 0.00 59.4 84.7
8/8/22 - 1900 77.2 42 52.2 9.7 WSW | 238 17.5 WSW | 237 0.00 0.00 59.4 84.7
8/8/22 - 1800 79.9 39 52.5 12.4 WSW | 245 21.2 WSW | 256 0.00 0.00 59.4 84.7
8/8/22 - 1700 82.8 37 53.7 12.2 WSW | 244 20.9 SW | 229 0.00 0.00 59.4 84.7
8/8/22 - 1600 83.3 37 54.7 11.3 WSW | 241 18.5 W | 265 0.00 0.00 59.4 84.7
8/8/22 - 1500 84.1 37 54.7 10.7 WSW | 243 18.8 SW | 229 0.00 0.00 59.4 84.7
8/8/22 - 1400 82.5 39 55.1 10.1 WSW | 238 16.8 SW | 227 0.00 0.00 59.4 84.2
8/8/22 - 1300 80.5 42 55.5 10.3 SW | 232 17.2 SW | 229 0.00 0.00 59.4 81.5
8/8/22 - 1200 77.6 47 55.7 9.8 SW | 232 16.8 SW | 230 0.00 0.00 59.4 79.9
8/8/22 - 1100 74.0 53 56.0 9.1 SW | 222 14.5 SSW | 195 0.00 0.00 59.4 75.7
8/8/22 - 1000 71.2 57 55.0 8.4 SW | 224 15.8 WSW | 251 0.00 0.00 59.4 71.7
8/8/22 - 0900 67.8 63 54.6 8.7 WSW | 239 15.8 WSW | 258 0.00 0.00 59.4 70.1
8/8/22 - 0800 62.5 76 54.8 5.9 SW | 225 11.5 WSW | 238 0.00 0.00 59.4 65.0
8/8/22 - 0700 61.1 78 54.2 7.4 SW | 236 13.8 WSW | 238 0.00 0.00 59.4 62.4
8/8/22 - 0600 61.3 77 54.1 6.4 WSW | 238 12.5 WSW | 239 0.00 0.00 59.4 62.4
8/8/22 - 0500 61.1 78 54.3 8.2 WSW | 241 16.2 WSW | 258 0.00 0.00 59.4 62.4
8/8/22 - 0400 59.7 83 54.7 6.1 SW | 216 10.8 SSW | 197 0.00 0.00 59.4 62.0
8/8/22 - 0300 60.5 82 54.8 7.4 SW | 223 13.2 WSW | 238 0.00 0.00 60.0 62.0
8/8/22 - 0200 61.5 78 54.6 6.8 SW | 221 12.5 WSW | 248 0.00 0.00 60.8 62.0
8/8/22 - 0100 62.4 76 54.6 7.5 SW | 225 14.5 SSW | 200 0.00 0.00 58.9 84.5
8/8/22 - 0000 62.8 74 54.4 7.4 WSW | 238 13.5 WSW | 240 0.00 0.00 58.9 84.5
8/7/22 - 2300 63.6 71 53.9 7.4 SW | 235 13.5 WSW | 244 0.00 0.00 58.9 84.5
8/7/22 - 2200 65.4 65 53.2 7.4 SW | 225 11.8 SW | 225 0.00 0.00 58.9 84.5
8/7/22 - 2100 68.3 57 52.3 5.6 SW | 236 10.5 SW | 233 0.00 0.00 58.9 84.5
8/7/22 - 2000 72.6 48 51.6 7.3 WSW | 245 16.2 WSW | 251 0.00 0.00 58.9 84.5
8/7/22 - 1900 76.7 42 52.1 10.7 SW | 236 16.8 WSW | 241 0.00 0.00 58.9 84.5
8/7/22 - 1800 80.6 39 53.4 10.3 SW | 236 18.2 WSW | 238 0.00 0.00 58.9 84.5
8/7/22 - 1700 82.6 39 54.8 11.1 SW | 233 18.2 SSW | 203 0.00 0.00 58.9 84.5
8/7/22 - 1600 82.6 41 56.4 10.8 SW | 232 18.8 WSW | 248 0.00 0.00 58.9 84.5
8/7/22 - 1500 83.3 40 56.3 10.7 SW | 228 18.2 SW | 235 0.00 0.00 58.9 84.5
8/7/22 - 1400 83.1 39 55.5 9.6 SW | 234 15.8 SW | 214 0.00 0.00 58.9 84.4
8/7/22 - 1300 80.9 40 54.4 9.4 WSW | 239 15.5 WSW | 246 0.00 0.00 58.9 81.9
8/7/22 - 1200 78.1 44 54.7 8.6 WSW | 254 17.5 WSW | 241 0.00 0.00 58.9 79.4
8/7/22 - 1100 73.7 51 54.7 8.5 W | 266 15.2 W | 259 0.00 0.00 58.9 76.1
8/7/22 - 1000 69.0 60 54.3 7.9 W | 264 13.8 WSW | 256 0.00 0.00 58.9 71.3
8/7/22 - 0900 64.8 69 54.5 8.4 W | 260 13.8 W | 270 0.00 0.00 58.9 66.1
8/7/22 - 0800 61.6 77 54.3 7.3 WSW | 253 12.8 WSW | 254 0.00 0.00 58.9 63.5
8/7/22 - 0700 59.3 81 53.6 4.7 WSW | 240 12.1 WSW | 254 0.00 0.00 58.9 63.5
8/7/22 - 0600 59.5 80 53.4 5.2 SW | 230 10.5 SSW | 203 0.00 0.00 59.4 63.5
8/7/22 - 0500 60.4 77 53.0 5.3 SW | 228 12.5 WSW | 244 0.00 0.00 59.5 63.5
8/7/22 - 0400 62.3 71 52.7 7.5 WSW | 247 13.5 WSW | 255 0.00 0.00 61.5 63.5
8/7/22 - 0300 63.0 68 52.5 7.8 WSW | 241 14.2 W | 278 0.00 0.00 61.5 63.5
8/7/22 - 0200 62.1 69 51.7 6.2 SW | 225 11.1 SW | 214 0.00 0.00 61.5 62.8
8/7/22 - 0100 62.2 67 51.2 4.8 SW | 214 7.4 SSW | 199 0.00 0.00 60.6 82.1
8/7/22 - 0000 63.5 63 50.6 4.1 SW | 225 6.4 WSW | 248 0.00 0.00 60.6 82.1
8/6/22 - 2300 63.9 65 52.0 3.3 SW | 227 6.4 WSW | 242 0.00 0.00 60.6 82.1
8/6/22 - 2200 65.9 62 52.6 2.2 SW | 219 4.8 SSW | 199 0.00 0.00 60.6 82.1
8/6/22 - 2100 69.6 56 53.0 4.0 SW | 228 9.1 SW | 220 0.00 0.00 60.6 82.1
8/6/22 - 2000 73.7 50 53.7 7.2 WSW | 240 16.2 SW | 236 0.00 0.00 60.6 82.1
8/6/22 - 1900 76.1 50 55.9 10.9 WSW | 238 18.5 WSW | 244 0.00 0.00 60.6 82.1
8/6/22 - 1800 78.7 47 56.6 11.3 WSW | 237 18.2 WSW | 238 0.00 0.00 60.6 82.1
8/6/22 - 1700 80.6 45 57.2 11.8 WSW | 238 19.2 WSW | 238 0.00 0.00 60.6 82.1
8/6/22 - 1600 81.4 44 57.6 10.9 WSW | 237 17.8 SW | 236 0.00 0.00 60.6 82.1
8/6/22 - 1500 80.4 46 57.6 11.4 SW | 232 17.8 WSW | 239 0.00 0.00 60.6 81.0
8/6/22 - 1400 79.4 47 57.2 10.5 SW | 228 16.5 SW | 220 0.00 0.00 60.6 80.5
8/6/22 - 1300 77.3 49 56.9 10.4 SW | 228 17.2 WSW | 245 0.00 0.00 60.6 78.2
8/6/22 - 1200 76.1 51 56.6 8.9 SW | 235 16.5 SW | 220 0.00 0.00 60.6 77.0
8/6/22 - 1100 73.2 56 56.6 7.7 WSW | 253 12.5 WSW | 245 0.00 0.00 60.6 74.7
8/6/22 - 1000 70.0 61 56.1 8.0 W | 262 13.8 WSW | 253 0.00 0.00 60.6 71.4
8/6/22 - 0900 67.5 67 56.2 7.7 W | 271 13.5 W | 261 0.00 0.00 60.6 69.2
8/6/22 - 0800 63.6 76 55.8 6.9 W | 267 13.8 WNW | 283 0.00 0.00 60.6 65.2
8/6/22 - 0700 61.1 81 55.2 6.2 WSW | 258 13.2 WSW | 239 0.00 0.00 60.6 62.9
8/6/22 - 0600 60.9 80 54.9 6.2 W | 260 11.5 SW | 227 0.00 0.00 60.7 62.9
8/6/22 - 0500 61.3 81 55.3 6.6 W | 262 13.5 WNW | 292 0.00 0.00 61.0 62.9
8/6/22 - 0400 61.8 80 55.7 5.7 WSW | 256 11.5 WSW | 237 0.00 0.00 61.4 62.9
8/6/22 - 0300 62.0 81 56.0 7.5 W | 263 13.5 WNW | 282 0.00 0.00 61.9 62.9
8/6/22 - 0200 62.6 80 56.2 7.2 WSW | 258 13.8 SW | 230 0.00 0.00 62.1 62.9
8/6/22 - 0100 62.9 79 56.5 6.6 WSW | 253 13.5 WSW | 244 0.00 0.00 60.5 82.4
8/6/22 - 0000 63.4 79 56.6 7.2 WSW | 247 15.5 SW | 221 0.00 0.00 60.5 82.4
8/5/22 - 2300 63.7 80 57.4 7.1 WSW | 239 12.8 WSW | 251 0.00 0.00 60.5 82.4
8/5/22 - 2200 64.1 79 57.3 6.7 WSW | 247 12.5 SW | 222 0.00 0.00 60.5 82.4
8/5/22 - 2100 66.0 73 57.3 7.1 WSW | 246 14.5 WSW | 239 0.00 0.00 60.5 82.4
8/5/22 - 2000 70.0 64 57.3 8.7 SW | 235 16.5 SW | 218 0.00 0.00 60.5 82.4
8/5/22 - 1900 74.2 57 58.2 8.7 SW | 234 15.5 SSW | 198 0.00 0.00 60.5 82.4
8/5/22 - 1800 77.3 54 59.2 10.0 WSW | 239 17.5 NW | 311 0.00 0.00 60.5 82.4
8/5/22 - 1700 80.1 50 60.0 9.4 WSW | 248 17.8 WSW | 248 0.00 0.00 60.5 82.4
8/5/22 - 1600 80.5 49 59.8 10.0 WSW | 237 16.5 SW | 235 0.00 0.00 60.5 82.4
8/5/22 - 1500 80.3 50 59.9 10.1 SW | 224 17.2 SW | 229 0.00 0.00 60.5 82.0
8/5/22 - 1400 81.2 49 60.3 8.9 SW | 216 14.5 SW | 231 0.00 0.00 60.5 82.0
8/5/22 - 1300 79.3 51 59.5 8.3 SSW | 210 16.2 SSW | 210 0.00 0.00 60.5 80.8
8/5/22 - 1200 76.0 54 58.2 8.4 SW | 222 14.8 SW | 232 0.00 0.00 60.5 77.6
8/5/22 - 1100 74.6 55 57.2 6.9 W | 261 14.5 WSW | 252 0.00 0.00 60.5 76.2
8/5/22 - 1000 69.8 61 55.8 8.3 WNW | 282 15.2 WNW | 286 0.00 0.00 60.5 72.4
8/5/22 - 0900 67.2 66 55.4 8.2 W | 280 15.8 WNW | 288 0.00 0.00 60.5 68.5
8/5/22 - 0800 62.6 76 54.8 6.8 W | 273 13.2 WNW | 283 0.00 0.00 60.5 65.2
8/5/22 - 0700 61.0 78 54.2 6.7 W | 261 12.8 WSW | 250 0.00 0.00 60.5 64.0
8/5/22 - 0600 60.6 78 53.9 5.3 W | 267 11.8 WSW | 240 0.00 0.00 60.5 64.0
Max 85.3 88 60.3 12.4 - 21.2 - 0.00 0.00 62.7 85.9
Avg 69.9 62 55.2 7.8 - 14.1 - 0.00 - - -
Min 57.9 36 50.6 2.2 - 4.8 - 0.00 0.00 57.3 61.3
Total - - - - - - - 0.00 - - -
Tip: Bookmark this page for easy future reference